Time;durP1;ratioP1;P1;durP2;ratioP2;P2;SDS_P1;SDS_P2;PMS_P1;PMS_P2;Temp;Humidity;BMP_temperature;BMP_pressure;BME280_temperature;BME280_humidity;BME280_pressure;Samples;Min_cycle;Max_cycle;Signal;HPM_P1;HPM_P2
2022/11/30 00:01:15;;;;;;;43.85;26.70;;;2.30;99.90;;;;;;5048650;28;20033;-49
2022/11/30 00:03:41;;;;;;;48.58;27.77;;;2.30;99.90;;;;;;5049527;28;20033;-51
2022/11/30 00:06:09;;;;;;;43.53;27.38;;;2.20;99.90;;;;;;5049529;28;20056;-49
2022/11/30 00:08:35;;;;;;;49.63;29.98;;;2.20;99.90;;;;;;5049564;28;20411;-49
2022/11/30 00:11:08;;;;;;;49.60;28.95;;;2.20;99.90;;;;;;5048962;28;20036;-50
2022/11/30 00:13:33;;;;;;;49.65;30.00;;;2.20;99.90;;;;;;5049536;28;20013;-48
2022/11/30 00:16:00;;;;;;;53.80;30.27;;;2.20;99.90;;;;;;5049114;28;20021;-48
2022/11/30 00:18:26;;;;;;;48.20;28.38;;;2.20;99.90;;;;;;5049416;28;20029;-50
2022/11/30 00:20:51;;;;;;;47.53;30.27;;;2.20;99.90;;;;;;5049247;28;20074;-49
2022/11/30 00:23:17;;;;;;;50.20;29.08;;;2.10;99.90;;;;;;5047978;28;20065;-50
2022/11/30 00:25:43;;;;;;;48.42;29.27;;;2.10;99.90;;;;;;5049233;28;20033;-51
2022/11/30 00:28:08;;;;;;;50.53;28.42;;;2.20;99.90;;;;;;5049067;28;20021;-48
2022/11/30 00:30:34;;;;;;;49.95;30.83;;;2.20;99.90;;;;;;5049141;28;20063;-47
2022/11/30 00:32:59;;;;;;;52.25;29.60;;;2.10;99.90;;;;;;5049074;28;20021;-48
2022/11/30 00:35:25;;;;;;;51.08;30.92;;;2.10;99.90;;;;;;5049158;28;20048;-52
2022/11/30 00:37:51;;;;;;;52.95;29.83;;;2.20;99.90;;;;;;5048763;28;20025;-48
2022/11/30 00:40:16;;;;;;;49.25;29.63;;;2.10;99.90;;;;;;5048902;28;20029;-47
2022/11/30 00:42:42;;;;;;;49.88;32.72;;;2.10;99.90;;;;;;5049010;28;20387;-51
2022/11/30 00:45:08;;;;;;;49.05;29.73;;;2.10;99.90;;;;;;5048830;28;20076;-49
2022/11/30 00:47:34;;;;;;;45.03;29.52;;;2.20;99.90;;;;;;5047513;28;20033;-48
2022/11/30 00:49:59;;;;;;;47.80;28.38;;;2.10;99.90;;;;;;5048709;28;20029;-49
2022/11/30 00:52:27;;;;;;;56.47;31.55;;;2.10;99.90;;;;;;5048790;28;20063;-51
2022/11/30 00:54:52;;;;;;;50.08;30.27;;;2.10;99.90;;;;;;5048605;28;20025;-48
2022/11/30 00:57:18;;;;;;;43.72;27.27;;;2.10;99.90;;;;;;5048933;28;20021;-49
2022/11/30 00:59:43;;;;;;;56.85;32.33;;;2.20;99.90;;;;;;5048720;28;20403;-47
2022/11/30 01:02:09;;;;;;;52.85;31.40;;;2.10;99.90;;;;;;5048458;28;20383;-49
2022/11/30 01:04:35;;;;;;;53.15;29.27;;;2.10;99.90;;;;;;5048347;28;20542;-49
2022/11/30 01:07:00;;;;;;;53.22;31.05;;;2.10;99.90;;;;;;5048066;28;20027;-50
2022/11/30 01:09:26;;;;;;;52.53;29.27;;;2.10;99.90;;;;;;5048360;28;20052;-49
2022/11/30 01:11:52;;;;;;;51.40;32.00;;;2.10;99.90;;;;;;5048122;28;20379;-50
2022/11/30 01:14:17;;;;;;;50.45;30.27;;;2.10;99.90;;;;;;5048551;28;20036;-48
2022/11/30 01:16:43;;;;;;;49.38;29.05;;;2.10;99.90;;;;;;5048490;28;20029;-49
2022/11/30 01:19:08;;;;;;;54.47;30.10;;;2.10;99.90;;;;;;5048441;28;20112;-49
2022/11/30 01:21:34;;;;;;;53.10;32.17;;;2.10;99.90;;;;;;5048480;28;20025;-51
2022/11/30 01:24:00;;;;;;;50.95;29.73;;;2.10;99.90;;;;;;5048096;28;20033;-48
2022/11/30 01:26:25;;;;;;;53.60;30.85;;;2.10;99.90;;;;;;5048566;28;20487;-50
2022/11/30 01:28:53;;;;;;;49.65;31.33;;;2.10;99.90;;;;;;5048270;28;20025;-50
2022/11/30 01:31:20;;;;;;;52.88;30.30;;;2.10;99.90;;;;;;5048344;28;20032;-48
2022/11/30 01:33:54;;;;;;;47.13;28.75;;;2.00;99.90;;;;;;5048267;28;20036;-48
2022/11/30 01:36:21;;;;;;;;;;;2.10;99.90;;;;;;5048864;28;20033;-50
2022/11/30 01:38:54;;;;;;;49.17;27.75;;;2.10;99.90;;;;;;5048057;28;19958;-50
2022/11/30 01:41:23;;;;;;;;;;;2.10;99.90;;;;;;5048562;28;20033;-48
2022/11/30 01:43:54;;;;;;;57.30;31.20;;;2.00;99.90;;;;;;5047925;28;20295;-48
2022/11/30 01:46:23;;;;;;;51.63;30.42;;;2.00;99.90;;;;;;5047400;28;20077;-50
2022/11/30 01:49:05;;;;;;;49.08;30.05;;;2.00;99.90;;;;;;5047192;28;20372;-49
2022/11/30 01:51:54;;;;;;;51.15;29.85;;;2.10;99.90;;;;;;5047618;28;20025;-52
2022/11/30 01:54:28;;;;;;;50.17;30.45;;;2.00;99.90;;;;;;5050149;28;20041;-49
2022/11/30 01:57:06;;;;;;;51.40;31.30;;;2.00;99.90;;;;;;5046985;28;20022;-50
2022/11/30 01:59:32;;;;;;;49.95;31.40;;;2.00;99.90;;;;;;5047488;28;20409;-53
2022/11/30 02:01:58;;;;;;;51.20;30.60;;;2.00;99.90;;;;;;5047372;28;20061;-50
2022/11/30 02:04:30;;;;;;;49.30;31.52;;;1.90;99.90;;;;;;5047821;28;20028;-50
2022/11/30 02:06:57;;;;;;;55.13;32.17;;;1.90;99.90;;;;;;5047810;28;20434;-51
2022/11/30 02:09:25;;;;;;;52.30;31.27;;;1.90;99.90;;;;;;5047768;28;20120;-51
2022/11/30 02:11:51;;;;;;;45.67;29.00;;;1.90;99.90;;;;;;5047723;28;20120;-50
2022/11/30 02:14:33;;;;;;;48.28;30.17;;;2.00;99.90;;;;;;5047934;28;20112;-52
2022/11/30 02:17:17;;;;;;;51.35;30.88;;;1.90;99.90;;;;;;5047716;28;20133;-51
2022/11/30 02:20:11;;;;;;;53.50;31.42;;;2.00;99.90;;;;;;5047761;28;20474;-51
2022/11/30 02:23:14;;;;;;;56.20;30.80;;;1.90;99.90;;;;;;5046444;28;20124;-53
2022/11/30 02:26:02;;;;;;;50.90;29.65;;;1.90;99.90;;;;;;5049497;28;20642;-48
2022/11/30 02:28:44;;;;;;;53.20;31.73;;;1.90;99.90;;;;;;5050995;28;20040;-51
2022/11/30 02:31:15;;;;;;;46.92;29.20;;;1.90;99.90;;;;;;5050979;28;20109;-51
2022/11/30 02:33:42;;;;;;;55.17;32.83;;;1.90;99.90;;;;;;5051002;28;20017;-51
2022/11/30 02:36:09;;;;;;;52.28;29.10;;;1.90;99.90;;;;;;5050927;28;20018;-47
2022/11/30 02:38:36;;;;;;;46.55;28.50;;;1.80;99.90;;;;;;5050961;28;20048;-48
2022/11/30 02:41:02;;;;;;;46.58;28.38;;;1.80;99.90;;;;;;5050709;28;20482;-50
2022/11/30 02:43:29;;;;;;;51.55;29.10;;;1.80;99.90;;;;;;5050836;28;20017;-49
2022/11/30 02:46:19;;;;;;;54.83;31.30;;;1.80;99.90;;;;;;5050757;28;20032;-48
2022/11/30 02:49:04;;;;;;;48.22;29.95;;;1.80;99.90;;;;;;5050699;28;20116;-51
2022/11/30 02:51:33;;;;;;;50.10;30.42;;;1.70;99.90;;;;;;5050638;28;20392;-50
2022/11/30 02:53:59;;;;;;;56.65;31.35;;;1.80;99.90;;;;;;5050602;28;20021;-50
2022/11/30 02:56:25;;;;;;;51.95;31.17;;;1.70;99.90;;;;;;5050653;28;20044;-48
2022/11/30 02:58:51;;;;;;;51.28;29.85;;;1.70;99.90;;;;;;5050332;28;20017;-50
2022/11/30 03:01:17;;;;;;;51.13;30.33;;;1.70;99.90;;;;;;5050692;28;20527;-53
2022/11/30 03:03:43;;;;;;;53.20;32.67;;;1.70;99.90;;;;;;5050499;28;20040;-52
2022/11/30 03:06:09;;;;;;;54.42;32.13;;;1.70;99.90;;;;;;5050428;28;20527;-52
2022/11/30 03:08:35;;;;;;;50.80;30.10;;;1.70;99.90;;;;;;5050391;28;20033;-52
2022/11/30 03:11:02;;;;;;;54.08;30.63;;;1.70;99.90;;;;;;5050212;28;20075;-49
2022/11/30 03:13:30;;;;;;;52.53;30.90;;;1.80;99.90;;;;;;5050459;28;20025;-52
2022/11/30 03:15:55;;;;;;;53.33;32.95;;;1.70;99.90;;;;;;5050190;28;20021;-49
2022/11/30 03:18:21;;;;;;;49.40;29.45;;;1.70;99.90;;;;;;5050225;28;20029;-49
2022/11/30 03:20:46;;;;;;;57.58;31.02;;;1.70;99.90;;;;;;5048978;28;20029;-48
2022/11/30 03:23:12;;;;;;;53.83;30.30;;;1.70;99.90;;;;;;5050245;28;20059;-50
2022/11/30 03:25:38;;;;;;;56.35;31.83;;;1.70;99.90;;;;;;5048840;28;20460;-50
2022/11/30 03:28:03;;;;;;;50.17;29.83;;;1.60;99.90;;;;;;5049979;28;20104;-49
2022/11/30 03:30:29;;;;;;;53.60;30.65;;;1.60;99.90;;;;;;5050165;28;20461;-50
2022/11/30 03:32:55;;;;;;;48.80;30.17;;;1.60;99.90;;;;;;5049967;28;20013;-53
2022/11/30 03:35:20;;;;;;;54.88;31.45;;;1.70;99.90;;;;;;5049855;28;20009;-48
2022/11/30 03:37:46;;;;;;;55.83;31.42;;;1.60;99.90;;;;;;5048687;28;20040;-49
2022/11/30 03:40:12;;;;;;;55.58;32.05;;;1.70;99.90;;;;;;5050015;28;20025;-49
2022/11/30 03:42:38;;;;;;;52.58;31.65;;;1.70;99.90;;;;;;5050009;28;20017;-50
2022/11/30 03:45:04;;;;;;;50.45;30.60;;;1.70;99.90;;;;;;5049780;28;20051;-49
2022/11/30 03:47:30;;;;;;;52.22;30.38;;;1.80;99.90;;;;;;5049610;28;20456;-48
2022/11/30 03:49:55;;;;;;;54.65;32.22;;;1.80;99.90;;;;;;5049570;28;20112;-50
2022/11/30 03:52:21;;;;;;;52.80;31.92;;;1.80;99.90;;;;;;5049761;28;20040;-50
2022/11/30 03:54:46;;;;;;;60.08;33.20;;;1.70;99.90;;;;;;5048296;27;20029;-49
2022/11/30 03:57:12;;;;;;;54.22;31.23;;;1.70;99.90;;;;;;5049820;28;20112;-51
2022/11/30 03:59:38;;;;;;;54.92;32.65;;;1.70;99.90;;;;;;5049615;28;20379;-49
2022/11/30 04:02:03;;;;;;;58.03;33.83;;;1.80;99.90;;;;;;5049484;28;20022;-47
2022/11/30 04:04:29;;;;;;;58.00;34.22;;;1.80;99.90;;;;;;5049475;28;20040;-49
2022/11/30 04:06:54;;;;;;;59.72;34.40;;;1.80;99.90;;;;;;5049313;28;20025;-49
2022/11/30 04:09:20;;;;;;;60.22;31.95;;;1.80;99.90;;;;;;5049416;28;20033;-50
2022/11/30 04:11:46;;;;;;;54.95;33.25;;;1.80;99.90;;;;;;5049393;28;20103;-48
2022/11/30 04:14:11;;;;;;;57.20;34.90;;;1.80;99.90;;;;;;5049474;28;20029;-50
2022/11/30 04:16:37;;;;;;;60.60;35.00;;;1.80;99.90;;;;;;5049378;28;20025;-48
2022/11/30 04:19:03;;;;;;;57.83;33.97;;;1.80;99.90;;;;;;5049000;28;20024;-49
2022/11/30 04:21:29;;;;;;;58.83;35.67;;;1.70;99.90;;;;;;5049391;28;20032;-49
2022/11/30 04:23:54;;;;;;;65.03;35.20;;;1.70;99.90;;;;;;5049253;28;20026;-50
2022/11/30 04:26:20;;;;;;;62.38;37.38;;;1.80;99.90;;;;;;5049329;28;20177;-52
2022/11/30 04:28:45;;;;;;;65.28;38.40;;;1.80;99.90;;;;;;5048976;28;20024;-48
2022/11/30 04:31:12;;;;;;;72.13;40.17;;;1.70;99.90;;;;;;5049163;28;20025;-50
2022/11/30 04:33:38;;;;;;;68.78;37.72;;;1.70;99.90;;;;;;5049133;28;20136;-50
2022/11/30 04:36:05;;;;;;;65.97;37.42;;;1.80;99.90;;;;;;5049074;28;20463;-49
2022/11/30 04:38:32;;;;;;;71.40;38.67;;;1.70;99.90;;;;;;5049048;27;20024;-52
2022/11/30 04:40:57;;;;;;;68.85;38.03;;;1.70;99.90;;;;;;5049017;28;20033;-48
2022/11/30 04:43:24;;;;;;;72.18;39.70;;;1.70;99.90;;;;;;5048985;28;20029;-47
2022/11/30 04:45:50;;;;;;;67.53;38.15;;;1.70;99.90;;;;;;5048806;28;20077;-48
2022/11/30 04:48:17;;;;;;;71.72;37.58;;;1.70;99.90;;;;;;5048318;28;20329;-51
2022/11/30 04:50:43;;;;;;;70.05;38.78;;;1.70;99.90;;;;;;5048679;28;20035;-51
2022/11/30 04:53:09;;;;;;;74.10;36.92;;;1.70;99.90;;;;;;5049024;28;20029;-47
2022/11/30 04:55:36;;;;;;;61.95;37.88;;;1.70;99.90;;;;;;5047749;28;20021;-49
2022/11/30 04:58:03;;;;;;;69.60;37.17;;;1.70;99.90;;;;;;5048753;28;20014;-51
2022/11/30 05:00:28;;;;;;;70.50;38.38;;;1.70;99.90;;;;;;5048610;28;20125;-49
2022/11/30 05:02:55;;;;;;;66.75;37.42;;;1.70;99.90;;;;;;5048596;28;20106;-49
2022/11/30 05:05:21;;;;;;;72.43;38.83;;;1.70;99.90;;;;;;5048679;28;20415;-49
2022/11/30 05:07:54;;;;;;;68.88;36.50;;;1.70;99.90;;;;;;5048537;28;20064;-48
2022/11/30 05:10:20;;;;;;;70.05;38.40;;;1.70;99.90;;;;;;5048511;28;20631;-49
2022/11/30 05:12:45;;;;;;;66.00;36.10;;;1.70;99.90;;;;;;5048417;28;20025;-47
2022/11/30 05:15:11;;;;;;;73.00;38.00;;;1.70;99.90;;;;;;5048470;28;20047;-51
2022/11/30 05:17:37;;;;;;;72.93;38.53;;;1.70;99.90;;;;;;5048594;28;20025;-51
2022/11/30 05:20:03;;;;;;;67.13;38.65;;;1.70;99.90;;;;;;5048589;28;20557;-48
2022/11/30 05:22:29;;;;;;;69.05;39.63;;;1.70;99.90;;;;;;5048420;28;20021;-49
2022/11/30 05:24:55;;;;;;;73.07;40.45;;;1.70;99.90;;;;;;5047151;28;20020;-47
2022/11/30 05:27:20;;;;;;;66.00;38.00;;;1.80;99.90;;;;;;5048181;28;20104;-49
2022/11/30 05:29:46;;;;;;;71.25;41.25;;;1.80;99.90;;;;;;5046938;28;20467;-49
2022/11/30 05:32:12;;;;;;;66.75;38.50;;;1.80;99.90;;;;;;5048332;28;20439;-50
2022/11/30 05:34:37;;;;;;;73.82;40.63;;;1.80;99.90;;;;;;5048312;28;20416;-50
2022/11/30 05:37:03;;;;;;;70.07;38.17;;;1.80;99.90;;;;;;5047719;28;20567;-51
2022/11/30 05:39:28;;;;;;;77.35;39.28;;;1.80;99.90;;;;;;5048131;28;20340;-49
2022/11/30 05:41:54;;;;;;;72.28;39.83;;;1.80;99.90;;;;;;5048023;28;20032;-51
2022/11/30 05:44:20;;;;;;;70.47;39.92;;;1.80;99.90;;;;;;5048045;28;20032;-50
2022/11/30 05:46:46;;;;;;;76.13;40.03;;;1.80;99.90;;;;;;5047813;28;20069;-49
2022/11/30 05:49:11;;;;;;;79.25;41.90;;;1.80;99.90;;;;;;5048123;28;20109;-48
2022/11/30 05:51:39;;;;;;;76.65;40.63;;;1.70;99.90;;;;;;5047946;28;20154;-51
2022/11/30 05:54:05;;;;;;;68.93;40.70;;;1.70;99.90;;;;;;5047821;28;20116;-49
2022/11/30 05:56:30;;;;;;;88.50;44.75;;;1.60;99.90;;;;;;5047500;28;20100;-52
2022/11/30 05:58:56;;;;;;;81.80;42.22;;;1.70;99.90;;;;;;5047229;28;20506;-47
2022/11/30 06:01:25;;;;;;;85.65;43.08;;;1.70;99.90;;;;;;5050282;28;20028;-49
2022/11/30 06:03:51;;;;;;;77.10;40.80;;;1.70;99.90;;;;;;5050001;27;20479;-48
2022/11/30 06:06:17;;;;;;;86.57;42.47;;;1.70;99.90;;;;;;5050272;28;20392;-51
2022/11/30 06:08:44;;;;;;;82.53;43.05;;;1.70;99.90;;;;;;5050010;28;20032;-52
2022/11/30 06:11:10;;;;;;;81.68;41.50;;;1.60;99.90;;;;;;5049959;28;20053;-50
2022/11/30 06:13:36;;;;;;;81.97;44.03;;;1.60;99.90;;;;;;5049967;28;20471;-49
2022/11/30 06:16:03;;;;;;;68.80;37.97;;;1.60;99.90;;;;;;5050023;28;20048;-49
2022/11/30 06:18:29;;;;;;;75.88;41.00;;;1.70;99.90;;;;;;5048881;28;20036;-49
2022/11/30 06:21:00;;;;;;;75.25;42.25;;;1.70;99.90;;;;;;5048916;28;20494;-49
2022/11/30 06:23:25;;;;;;;85.68;41.50;;;1.70;99.90;;;;;;5050096;28;20444;-47
2022/11/30 06:25:51;;;;;;;73.70;38.55;;;1.70;99.90;;;;;;5049686;28;20025;-50
2022/11/30 06:28:16;;;;;;;82.05;41.17;;;1.70;99.90;;;;;;5049881;28;20053;-50
2022/11/30 06:30:42;;;;;;;79.32;40.92;;;1.60;99.90;;;;;;5048730;28;20391;-51
2022/11/30 06:33:08;;;;;;;67.60;38.67;;;1.60;99.90;;;;;;5049731;28;20648;-48
2022/11/30 06:35:33;;;;;;;79.78;39.50;;;1.60;99.90;;;;;;5049874;28;20021;-49
2022/11/30 06:37:59;;;;;;;81.88;41.97;;;1.60;99.90;;;;;;5049615;28;20056;-50
2022/11/30 06:40:26;;;;;;;83.50;40.92;;;1.60;99.90;;;;;;5049769;28;20025;-48
2022/11/30 06:42:57;;;;;;;72.43;39.65;;;1.70;99.90;;;;;;5049564;28;20053;-50
2022/11/30 06:45:23;;;;;;;75.55;40.75;;;1.60;99.90;;;;;;5048684;28;20044;-49
2022/11/30 06:47:55;;;;;;;74.35;39.30;;;1.70;99.90;;;;;;5049584;28;20259;-50
2022/11/30 06:50:21;;;;;;;71.53;37.58;;;1.70;99.90;;;;;;5049497;28;20037;-49
2022/11/30 06:52:47;;;;;;;69.90;39.10;;;1.70;99.90;;;;;;5049455;28;20100;-49
2022/11/30 06:55:12;;;;;;;63.50;35.17;;;1.70;99.90;;;;;;5049540;28;20021;-50
2022/11/30 06:57:38;;;;;;;68.40;36.80;;;1.70;99.90;;;;;;5049421;28;20028;-49
2022/11/30 07:00:04;;;;;;;62.70;38.55;;;1.70;99.90;;;;;;5049317;28;20032;-50
2022/11/30 07:02:30;;;;;;;71.13;37.63;;;1.80;99.90;;;;;;5049584;28;20029;-48
2022/11/30 07:04:56;;;;;;;60.28;34.53;;;1.70;99.90;;;;;;5047993;28;20028;-53
2022/11/30 07:07:22;;;;;;;61.78;35.67;;;1.70;99.90;;;;;;5049304;28;20017;-49
2022/11/30 07:09:49;;;;;;;63.30;36.10;;;1.80;99.90;;;;;;5048713;28;20040;-50
2022/11/30 07:12:15;;;;;;;63.83;36.55;;;1.80;99.90;;;;;;5049172;28;20024;-52
2022/11/30 07:14:40;;;;;;;66.13;37.63;;;1.80;99.90;;;;;;5049322;28;20017;-52
2022/11/30 07:17:06;;;;;;;62.15;37.40;;;1.80;99.90;;;;;;5048964;28;20021;-48
2022/11/30 07:19:35;;;;;;;65.82;34.63;;;1.90;99.90;;;;;;5049189;28;20029;-50
2022/11/30 07:22:01;;;;;;;61.33;33.90;;;1.90;99.90;;;;;;5049006;28;20052;-52
2022/11/30 07:27:10;;;;;;;61.60;34.58;;;2.00;99.90;;;;;;5049292;28;20081;-49
2022/11/30 07:29:36;;;;;;;54.15;32.60;;;2.00;99.90;;;;;;5049198;28;20107;-52
2022/11/30 07:32:01;;;;;;;60.40;34.28;;;2.00;99.90;;;;;;5048903;28;20216;-51
2022/11/30 07:34:27;;;;;;;57.85;34.42;;;2.00;99.90;;;;;;5048840;28;20585;-49
2022/11/30 07:37:05;;;;;;;62.88;34.85;;;2.00;99.90;;;;;;5048637;28;20422;-50
2022/11/30 07:39:34;;;;;;;54.58;31.63;;;2.00;99.90;;;;;;5048876;28;20534;-49
2022/11/30 07:41:59;;;;;;;57.72;32.10;;;2.00;99.90;;;;;;5048866;28;20029;-50
2022/11/30 07:44:25;;;;;;;52.38;31.08;;;2.00;99.90;;;;;;5048608;28;20029;-50
2022/11/30 07:46:51;;;;;;;50.40;30.40;;;2.00;99.90;;;;;;5048488;28;20047;-52
2022/11/30 07:49:16;;;;;;;50.83;31.40;;;2.00;99.90;;;;;;5048707;28;20276;-47
2022/11/30 07:51:42;;;;;;;61.33;33.15;;;2.00;99.90;;;;;;5048656;28;20017;-51
2022/11/30 07:54:08;;;;;;;59.00;34.83;;;2.00;99.90;;;;;;5048614;28;20029;-49
2022/11/30 07:56:33;;;;;;;59.10;34.40;;;2.00;99.90;;;;;;5048586;28;20025;-49
2022/11/30 07:59:00;;;;;;;53.72;31.75;;;2.00;99.90;;;;;;5048356;28;20103;-49
2022/11/30 08:01:31;;;;;;;58.95;33.88;;;2.00;99.90;;;;;;5048481;28;20442;-51
2022/11/30 08:03:57;;;;;;;60.35;34.50;;;2.00;99.90;;;;;;5048182;28;20310;-48
2022/11/30 08:06:28;;;;;;;52.97;32.00;;;2.10;99.90;;;;;;5048466;28;20041;-50
2022/11/30 08:08:58;;;;;;;63.45;33.92;;;2.20;99.90;;;;;;5048336;28;20021;-52
2022/11/30 08:11:26;;;;;;;55.92;31.30;;;2.30;99.90;;;;;;5048278;28;20033;-51
2022/11/30 08:13:53;;;;;;;56.25;33.10;;;2.20;99.90;;;;;;5048545;28;20071;-51
2022/11/30 08:16:24;;;;;;;65.47;35.83;;;2.20;99.90;;;;;;5048264;28;20053;-53
2022/11/30 08:18:50;;;;;;;68.60;35.35;;;2.20;99.90;;;;;;5048160;28;20440;-49
2022/11/30 08:21:18;;;;;;;60.70;32.63;;;2.20;99.90;;;;;;5047332;28;20025;-53
2022/11/30 08:23:46;;;;;;;57.47;33.85;;;2.20;99.90;;;;;;5047985;28;20021;-50
2022/11/30 08:26:14;;;;;;;60.55;32.97;;;2.20;99.90;;;;;;5048102;28;20070;-50
2022/11/30 08:28:40;;;;;;;63.20;33.42;;;2.20;99.90;;;;;;5048055;28;20052;-50
2022/11/30 08:31:09;;;;;;;59.05;33.50;;;2.20;99.90;;;;;;5047728;28;20029;-49
2022/11/30 08:33:36;;;;;;;57.60;33.67;;;2.20;99.90;;;;;;5048036;28;20023;-49
2022/11/30 08:36:17;;;;;;;61.25;33.90;;;2.30;99.90;;;;;;5047873;28;20021;-50
2022/11/30 08:38:44;;;;;;;60.83;36.58;;;2.30;99.90;;;;;;5046627;28;20021;-48
2022/11/30 08:41:11;;;;;;;59.33;33.88;;;2.30;99.90;;;;;;5047971;28;20158;-49
2022/11/30 08:43:37;;;;;;;58.80;33.35;;;2.30;99.90;;;;;;5046503;28;20383;-48
2022/11/30 08:46:06;;;;;;;57.42;33.88;;;2.30;99.90;;;;;;5047642;28;20040;-49
2022/11/30 08:48:32;;;;;;;55.33;34.28;;;2.20;99.90;;;;;;5047790;28;20025;-53
2022/11/30 08:51:04;;;;;;;64.60;34.15;;;2.20;99.90;;;;;;5047447;28;20025;-51
2022/11/30 08:53:30;;;;;;;61.40;36.13;;;2.10;99.90;;;;;;5046347;28;20052;-49
2022/11/30 08:55:58;;;;;;;70.15;38.20;;;2.10;99.90;;;;;;5046216;28;20531;-50
2022/11/30 08:58:24;;;;;;;71.63;38.83;;;2.10;99.90;;;;;;5046402;28;20025;-49
2022/11/30 09:00:50;;;;;;;68.53;36.88;;;2.00;99.90;;;;;;5047485;28;20029;-49
2022/11/30 09:03:16;;;;;;;68.43;37.72;;;2.20;99.90;;;;;;5047845;28;20033;-51
2022/11/30 09:05:41;;;;;;;62.85;33.63;;;2.20;99.90;;;;;;5047534;28;20049;-51
2022/11/30 09:08:07;;;;;;;61.45;35.30;;;2.20;99.90;;;;;;5047392;28;20064;-52
2022/11/30 09:10:33;;;;;;;63.45;34.17;;;2.20;99.90;;;;;;5047331;28;20088;-47
2022/11/30 09:12:58;;;;;;;63.95;34.55;;;2.20;99.90;;;;;;5047335;28;20051;-51
2022/11/30 09:15:24;;;;;;;58.42;34.95;;;2.20;99.90;;;;;;5047610;28;20041;-51
2022/11/30 09:17:50;;;;;;;67.55;36.30;;;2.20;99.90;;;;;;5047100;28;20435;-48
2022/11/30 09:20:15;;;;;;;58.22;34.13;;;2.20;99.90;;;;;;5047277;28;20021;-48
2022/11/30 09:22:41;;;;;;;64.32;36.35;;;2.30;99.90;;;;;;5047322;28;20048;-50
2022/11/30 09:25:08;;;;;;;65.82;36.88;;;2.30;99.90;;;;;;5047135;28;20383;-49
2022/11/30 09:27:33;;;;;;;65.82;36.63;;;2.30;99.90;;;;;;5047413;28;20026;-50
2022/11/30 09:29:59;;;;;;;66.97;37.45;;;2.20;99.90;;;;;;5047040;28;20031;-52
2022/11/30 09:32:27;;;;;;;66.28;36.80;;;2.10;99.90;;;;;;5047067;28;20030;-50
2022/11/30 09:34:53;;;;;;;65.32;36.22;;;2.00;99.90;;;;;;5050495;28;20022;-49
2022/11/30 09:37:19;;;;;;;68.65;37.42;;;2.10;99.90;;;;;;5050728;28;20028;-48
2022/11/30 09:39:44;;;;;;;66.28;37.83;;;2.10;99.90;;;;;;5050484;28;20111;-52
2022/11/30 09:42:26;;;;;;;61.35;36.50;;;2.20;99.90;;;;;;5050678;28;20033;-48
2022/11/30 09:45:17;;;;;;;71.47;37.08;;;2.20;99.90;;;;;;5049130;28;20063;-48
2022/11/30 09:48:10;;;;;;;68.10;38.90;;;2.30;99.90;;;;;;5050506;28;20029;-49
2022/11/30 09:50:42;;;;;;;64.25;37.42;;;2.40;99.90;;;;;;5050649;28;20475;-49
2022/11/30 09:53:20;;;;;;;61.95;37.40;;;2.50;99.90;;;;;;5050482;28;20104;-47
2022/11/30 09:55:46;;;;;;;69.13;36.72;;;2.40;99.90;;;;;;5050395;28;20017;-51
2022/11/30 09:58:32;;;;;;;64.05;37.83;;;2.40;99.90;;;;;;5050657;28;20371;-49
2022/11/30 10:00:58;;;;;;;61.95;36.97;;;2.50;99.90;;;;;;5050385;28;20104;-50
2022/11/30 10:03:24;;;;;;;70.75;39.22;;;2.50;99.90;;;;;;5050408;28;20144;-50
2022/11/30 10:06:10;;;;;;;66.85;38.63;;;2.50;99.90;;;;;;5050141;28;20060;-48
2022/11/30 10:08:36;;;;;;;70.00;39.33;;;2.40;99.90;;;;;;5050309;28;20365;-48
2022/11/30 10:11:05;;;;;;;62.75;35.83;;;2.50;99.90;;;;;;5048542;28;20094;-51
2022/11/30 10:13:55;;;;;;;71.97;39.42;;;2.60;99.90;;;;;;5050164;28;20069;-51
2022/11/30 10:16:36;;;;;;;66.93;38.10;;;2.60;99.90;;;;;;5049998;28;20516;-49
2022/11/30 10:19:28;;;;;;;63.17;35.35;;;2.70;99.90;;;;;;5050011;28;20028;-49
2022/11/30 10:22:03;;;;;;;55.38;33.03;;;2.70;99.90;;;;;;5049552;28;20080;-51
2022/11/30 10:24:57;;;;;;;60.60;34.28;;;2.70;99.90;;;;;;5050020;28;20101;-46
2022/11/30 10:27:52;;;;;;;67.47;34.85;;;2.60;99.90;;;;;;5049993;28;20057;-48
2022/11/30 10:30:21;;;;;;;65.10;35.67;;;2.60;99.90;;;;;;5049910;28;20076;-48
2022/11/30 10:32:52;;;;;;;63.00;34.70;;;2.60;99.90;;;;;;5049812;28;20021;-49
2022/11/30 10:35:38;;;;;;;76.25;41.72;;;2.70;99.90;;;;;;5049939;28;20021;-49
2022/11/30 10:38:12;;;;;;;65.40;35.08;;;2.60;99.90;;;;;;5049553;28;20493;-49
2022/11/30 10:40:50;;;;;;;52.13;31.30;;;2.60;99.90;;;;;;5049986;28;20471;-51
2022/11/30 10:43:37;;;;;;;57.53;32.30;;;2.70;99.90;;;;;;5049617;28;20051;-47
2022/11/30 10:46:04;;;;;;;59.38;33.53;;;2.70;99.90;;;;;;5048358;27;20033;-49
2022/11/30 10:48:40;;;;;;;77.93;33.50;;;2.80;99.90;;;;;;5049686;28;20475;-47
2022/11/30 10:51:07;;;;;;;67.63;32.50;;;2.80;99.90;;;;;;5049499;28;20228;-48
2022/11/30 10:53:33;;;;;;;57.92;32.95;;;2.80;99.90;;;;;;5049427;28;20045;-53
2022/11/30 10:56:08;;;;;;;62.95;36.00;;;2.90;99.90;;;;;;5049330;28;20033;-49
2022/11/30 10:58:39;;;;;;;62.70;34.63;;;2.80;99.90;;;;;;5049476;28;20091;-48
2022/11/30 11:01:08;;;;;;;88.20;49.22;;;2.90;99.90;;;;;;5049338;28;20490;-48
2022/11/30 11:03:34;;;;;;;74.47;39.15;;;2.80;99.90;;;;;;5049415;28;20021;-48
2022/11/30 11:06:05;;;;;;;70.13;36.85;;;2.80;99.90;;;;;;5049226;27;20021;-46
2022/11/30 11:08:31;;;;;;;71.40;38.00;;;2.70;99.90;;;;;;5049308;28;20032;-47
2022/11/30 11:10:57;;;;;;;62.78;33.63;;;2.60;99.90;;;;;;5048915;28;20049;-49
2022/11/30 11:13:41;;;;;;;64.18;34.67;;;2.70;99.90;;;;;;5049104;28;20028;-49
2022/11/30 11:16:12;;;;;;;64.10;33.97;;;2.70;99.90;;;;;;5049206;28;20381;-48
2022/11/30 11:19:19;;;;;;;74.85;36.78;;;2.70;99.90;;;;;;5049186;28;20024;-48
2022/11/30 11:21:49;;;;;;;64.38;35.33;;;2.90;99.90;;;;;;5058741;28;20033;-47
2022/11/30 11:24:18;;;;;;;71.35;37.85;;;2.90;99.90;;;;;;5049152;28;20021;-50
2022/11/30 11:26:50;;;;;;;64.00;36.28;;;2.80;99.90;;;;;;5048937;28;20017;-50
2022/11/30 11:29:32;;;;;;;63.90;35.42;;;2.90;99.90;;;;;;5049007;28;20108;-50
2022/11/30 11:32:17;;;;;;;64.00;35.10;;;2.90;99.90;;;;;;5048749;28;20021;-49
2022/11/30 11:34:44;;;;;;;65.63;34.78;;;2.90;99.90;;;;;;5048934;28;20021;-48
2022/11/30 11:37:21;;;;;;;63.42;35.78;;;2.90;99.90;;;;;;5048899;28;20029;-47
2022/11/30 11:40:13;;;;;;;62.63;34.50;;;3.00;99.90;;;;;;5048752;28;20081;-47
2022/11/30 11:42:50;;;;;;;64.63;35.33;;;3.00;99.90;;;;;;5048826;28;20017;-48
2022/11/30 11:45:25;;;;;;;68.07;37.38;;;3.10;99.90;;;;;;5047463;28;20523;-51
2022/11/30 11:48:08;;;;;;;65.30;33.45;;;3.20;99.90;;;;;;5048600;28;20029;-48
2022/11/30 11:50:36;;;;;;;67.03;35.28;;;3.20;99.90;;;;;;5048698;28;20510;-50
2022/11/30 11:53:21;;;;;;;68.20;36.38;;;3.10;99.90;;;;;;5048448;28;20033;-49
2022/11/30 11:55:55;;;;;;;67.00;34.50;;;3.10;99.90;;;;;;5048494;28;20013;-48
2022/11/30 11:58:25;;;;;;;;;;;3.20;99.90;;;;;;5049059;28;20021;-49
2022/11/30 12:00:53;;;;;;;64.53;34.47;;;3.10;99.90;;;;;;5048251;28;20363;-52
2022/11/30 12:03:34;;;;;;;60.15;34.67;;;3.00;99.90;;;;;;5048443;28;20024;-53
2022/11/30 12:06:04;;;;;;;69.05;36.30;;;3.00;99.90;;;;;;5048219;28;20025;-48
2022/11/30 12:08:53;;;;;;;64.97;33.70;;;3.00;99.90;;;;;;5048349;28;20029;-48
2022/11/30 12:11:36;;;;;;;76.90;37.97;;;2.90;99.90;;;;;;5048316;28;20124;-48
2022/11/30 12:14:08;;;;;;;74.47;36.88;;;2.90;99.90;;;;;;5048113;28;20021;-48
2022/11/30 12:16:41;;;;;;;78.68;37.13;;;2.90;99.90;;;;;;5048218;28;20380;-51
2022/11/30 12:19:19;;;;;;;77.68;39.10;;;2.80;99.90;;;;;;5046875;28;20032;-48
2022/11/30 12:22:14;;;;;;;96.85;55.45;;;2.80;99.90;;;;;;5048073;28;20021;-50
2022/11/30 12:25:09;;;;;;;72.20;38.65;;;2.90;99.90;;;;;;5048122;28;20115;-50
2022/11/30 12:27:51;;;;;;;71.90;35.00;;;2.80;99.90;;;;;;5048197;28;20073;-52
2022/11/30 12:30:36;;;;;;;74.72;35.72;;;2.80;99.90;;;;;;5048000;28;20032;-53
2022/11/30 12:33:44;;;;;;;68.03;34.92;;;2.90;99.90;;;;;;5047983;28;20025;-48
2022/11/30 12:36:18;;;;;;;69.22;36.50;;;3.00;99.90;;;;;;5047935;28;20029;-49
2022/11/30 12:38:48;;;;;;;71.30;34.70;;;3.00;99.90;;;;;;5047878;28;20021;-49
2022/11/30 12:41:31;;;;;;;68.00;34.88;;;2.90;99.90;;;;;;5047861;28;20622;-51
2022/11/30 12:44:40;;;;;;;67.47;34.05;;;2.90;99.90;;;;;;5047836;28;20025;-51
2022/11/30 12:47:31;;;;;;;68.10;36.50;;;3.00;99.90;;;;;;5046252;28;20077;-50
2022/11/30 12:50:31;;;;;;;65.07;33.15;;;2.90;99.90;;;;;;5047613;28;20057;-51
2022/11/30 12:53:18;;;;;;;95.13;49.78;;;2.90;99.90;;;;;;5047931;28;20078;-54
2022/11/30 12:56:10;;;;;;;89.57;55.22;;;2.90;99.90;;;;;;5047540;28;20057;-51